createdAt,value
2023-04-29T00:01:10.807Z,64.59
2023-04-29T00:03:39.014Z,64.67
2023-04-29T00:06:07.537Z,64.71
2023-04-29T00:08:36.352Z,64.80
2023-04-29T00:11:04.670Z,64.40
2023-04-29T00:13:32.690Z,64.68
2023-04-29T00:16:00.784Z,65.28
2023-04-29T00:18:28.732Z,65.11
2023-04-29T00:20:56.751Z,65.05
2023-04-29T00:23:24.768Z,64.95
2023-04-29T00:25:53.685Z,65.34
2023-04-29T00:28:21.917Z,65.88
2023-04-29T00:30:50.667Z,66.00
2023-04-29T00:33:18.667Z,65.85
2023-04-29T00:35:47.293Z,65.28
2023-04-29T00:38:15.293Z,65.20
2023-04-29T00:40:44.115Z,65.20
2023-04-29T00:43:12.140Z,65.07
2023-04-29T00:45:40.618Z,65.25
2023-04-29T00:48:09.312Z,65.27
2023-04-29T00:50:37.304Z,64.73
2023-04-29T00:53:05.317Z,64.31
2023-04-29T00:55:33.745Z,63.94
2023-04-29T00:58:03.048Z,63.99
2023-04-29T01:00:31.281Z,64.09
2023-04-29T01:02:59.950Z,63.92
2023-04-29T01:05:28.121Z,63.88
2023-04-29T01:08:50.040Z,64.68
2023-04-29T01:11:21.407Z,65.59
2023-04-29T01:13:49.694Z,66.08
2023-04-29T01:16:24.210Z,66.84
2023-04-29T01:18:58.167Z,66.26
2023-04-29T01:21:32.257Z,66.85
2023-04-29T01:24:00.271Z,67.28
2023-04-29T01:26:31.759Z,68.00
2023-04-29T01:29:11.024Z,67.55
2023-04-29T01:31:46.988Z,68.20
2023-04-29T01:34:21.508Z,68.72
2023-04-29T01:37:21.436Z,67.92
2023-04-29T01:40:09.627Z,68.94
2023-04-29T01:42:48.589Z,68.56
2023-04-29T01:45:19.125Z,69.43
2023-04-29T01:47:47.193Z,69.43
2023-04-29T01:50:16.066Z,69.56
2023-04-29T01:52:44.379Z,69.31
2023-04-29T01:55:12.600Z,69.44
2023-04-29T01:57:52.161Z,69.50
2023-04-29T02:00:38.987Z,69.09
2023-04-29T02:03:07.177Z,69.45
2023-04-29T02:05:40.815Z,68.86
2023-04-29T02:08:08.931Z,69.17
2023-04-29T02:10:40.558Z,69.39
2023-04-29T02:13:24.540Z,69.08
2023-04-29T02:15:52.722Z,69.35
2023-04-29T02:18:20.975Z,69.48
2023-04-29T02:20:51.927Z,69.52
2023-04-29T02:23:19.925Z,69.49
2023-04-29T02:25:48.146Z,69.42
2023-04-29T02:28:16.469Z,69.27
2023-04-29T02:30:44.986Z,69.34
2023-04-29T02:33:12.980Z,69.07
2023-04-29T02:35:41.024Z,69.03
2023-04-29T02:38:09.049Z,69.03
2023-04-29T02:40:44.895Z,69.58
2023-04-29T02:43:13.016Z,70.16
2023-04-29T02:45:41.063Z,70.12
2023-04-29T02:48:09.809Z,70.41
2023-04-29T02:50:38.206Z,70.12
2023-04-29T02:53:06.303Z,70.18
2023-04-29T02:55:34.240Z,70.06
2023-04-29T02:58:07.263Z,70.02
2023-04-29T03:00:35.471Z,69.99
2023-04-29T03:03:03.850Z,70.00
2023-04-29T03:05:32.313Z,69.77
2023-04-29T03:08:00.354Z,69.30
2023-04-29T03:10:29.256Z,69.45
2023-04-29T03:12:57.389Z,69.76
2023-04-29T03:15:25.602Z,69.69
2023-04-29T03:17:53.742Z,70.12
2023-04-29T03:20:22.037Z,69.98
2023-04-29T03:22:50.054Z,69.36
2023-04-29T03:25:18.775Z,69.65
2023-04-29T03:27:47.395Z,70.09
2023-04-29T03:30:15.533Z,69.88
2023-04-29T03:32:48.585Z,69.94
2023-04-29T03:35:16.776Z,69.99
2023-04-29T03:38:13.907Z,70.05
2023-04-29T03:40:43.016Z,70.22
2023-04-29T03:43:11.352Z,70.03
2023-04-29T03:45:39.467Z,69.94
2023-04-29T03:48:08.353Z,69.80
2023-04-29T03:50:37.098Z,70.01
2023-04-29T03:53:05.352Z,69.87
2023-04-29T03:55:33.646Z,69.83
2023-04-29T03:58:01.956Z,70.13
2023-04-29T04:00:31.485Z,69.84
2023-04-29T04:03:00.815Z,69.80
2023-04-29T04:05:30.233Z,69.86
2023-04-29T04:08:02.666Z,70.10
2023-04-29T04:11:02.832Z,69.72
2023-04-29T04:13:37.345Z,69.63
2023-04-29T04:16:05.778Z,69.54
2023-04-29T04:18:33.886Z,69.29
2023-04-29T04:21:12.042Z,69.96
2023-04-29T04:23:41.867Z,70.01
2023-04-29T04:26:11.484Z,69.66
2023-04-29T04:29:17.843Z,70.06
2023-04-29T04:31:50.791Z,69.96
2023-04-29T04:34:19.505Z,70.03
2023-04-29T04:36:49.231Z,69.64
2023-04-29T04:39:17.249Z,69.52
2023-04-29T04:41:45.573Z,69.01
2023-04-29T04:44:14.547Z,69.34
2023-04-29T04:46:53.163Z,69.19
2023-04-29T04:49:50.428Z,69.36
2023-04-29T04:52:22.014Z,69.09
2023-04-29T04:54:57.156Z,68.62
2023-04-29T04:57:26.473Z,67.66
2023-04-29T04:59:55.999Z,67.07
2023-04-29T05:02:24.225Z,66.45
2023-04-29T05:04:53.444Z,65.55
2023-04-29T05:07:21.867Z,64.26
2023-04-29T05:10:10.726Z,64.63
2023-04-29T05:12:47.100Z,64.04
2023-04-29T05:15:16.874Z,63.63
2023-04-29T05:17:45.387Z,63.17
2023-04-29T05:20:13.676Z,63.01
2023-04-29T05:22:42.003Z,63.29
2023-04-29T05:25:10.622Z,62.78
2023-04-29T05:27:39.440Z,62.47
2023-04-29T05:30:10.968Z,61.89
2023-04-29T05:32:39.060Z,61.80
2023-04-29T05:35:09.021Z,60.98
2023-04-29T05:37:37.437Z,60.43
2023-04-29T05:40:14.283Z,60.51
2023-04-29T05:42:42.835Z,60.05
2023-04-29T05:45:12.586Z,59.50
2023-04-29T05:47:40.708Z,58.23
2023-04-29T05:50:09.074Z,57.93
2023-04-29T05:52:37.609Z,57.80
2023-04-29T05:55:06.123Z,57.21
2023-04-29T05:57:34.544Z,56.80
2023-04-29T06:00:04.070Z,56.75
2023-04-29T06:02:54.838Z,56.38
2023-04-29T06:05:27.466Z,55.67
2023-04-29T06:08:20.203Z,55.85
2023-04-29T06:10:54.049Z,56.02
2023-04-29T06:13:22.072Z,54.05
2023-04-29T06:15:50.734Z,53.45
2023-04-29T06:18:19.513Z,52.70
2023-04-29T06:20:47.535Z,50.45
2023-04-29T06:23:15.947Z,47.89
2023-04-29T06:25:44.028Z,46.28
2023-04-29T06:28:12.290Z,44.47
2023-04-29T06:30:40.311Z,43.09
2023-04-29T06:33:09.453Z,42.59
2023-04-29T06:35:41.022Z,42.11
2023-04-29T06:38:19.620Z,40.96
2023-04-29T06:40:47.740Z,41.41
2023-04-29T06:43:18.468Z,41.66
2023-04-29T06:45:57.727Z,40.52
2023-04-29T06:48:35.482Z,39.83
2023-04-29T06:51:05.410Z,39.50
2023-04-29T06:53:37.346Z,39.57
2023-04-29T06:56:07.001Z,38.44
2023-04-29T06:58:35.111Z,37.60
2023-04-29T07:01:04.399Z,37.73
2023-04-29T07:03:33.050Z,37.57
2023-04-29T07:06:01.052Z,37.51
2023-04-29T07:08:29.181Z,37.87
2023-04-29T07:10:57.792Z,38.38
2023-04-29T07:13:25.812Z,37.76
2023-04-29T07:15:53.834Z,37.81
2023-04-29T07:18:22.066Z,37.83
2023-04-29T07:20:52.180Z,36.38
2023-04-29T07:23:20.202Z,36.37
2023-04-29T07:25:48.220Z,36.14
2023-04-29T07:28:16.237Z,35.85
2023-04-29T07:30:44.307Z,36.13
2023-04-29T07:33:12.478Z,36.82
2023-04-29T07:35:43.407Z,36.06
2023-04-29T07:38:11.629Z,34.49
2023-04-29T07:40:39.645Z,34.86
2023-04-29T07:43:09.459Z,35.02
2023-04-29T07:45:37.692Z,35.55
2023-04-29T07:48:06.796Z,35.59
2023-04-29T07:50:35.440Z,35.81
2023-04-29T07:53:03.858Z,36.20
2023-04-29T07:55:31.980Z,35.04
2023-04-29T07:58:01.602Z,35.05
2023-04-29T08:00:29.619Z,34.25
2023-04-29T08:02:58.029Z,34.49
2023-04-29T08:05:26.847Z,34.06
2023-04-29T08:07:55.282Z,34.85
2023-04-29T08:10:23.604Z,34.42
2023-04-29T08:12:51.632Z,34.69
2023-04-29T08:15:20.450Z,33.99
2023-04-29T08:17:48.490Z,34.54
2023-04-29T08:20:16.589Z,34.13
2023-04-29T08:22:44.607Z,34.64
2023-04-29T08:25:12.644Z,34.32
2023-04-29T08:27:40.856Z,33.92
2023-04-29T08:30:09.636Z,33.61
2023-04-29T08:32:37.613Z,34.54
2023-04-29T08:35:06.316Z,33.04
2023-04-29T08:37:34.329Z,33.20
2023-04-29T08:40:03.769Z,33.26
2023-04-29T08:42:36.586Z,33.17
2023-04-29T08:45:05.058Z,32.80
2023-04-29T08:47:33.765Z,33.51
2023-04-29T08:50:05.370Z,32.81
2023-04-29T08:52:33.492Z,31.69
2023-04-29T08:55:05.874Z,31.79
2023-04-29T08:57:40.087Z,31.20
2023-04-29T09:00:10.514Z,31.70
2023-04-29T09:02:44.775Z,32.72
2023-04-29T09:05:13.154Z,31.41
2023-04-29T09:07:41.791Z,30.89
2023-04-29T09:10:10.196Z,31.22
2023-04-29T09:12:38.220Z,31.47
2023-04-29T09:15:06.979Z,31.97
2023-04-29T09:17:41.160Z,31.68
2023-04-29T09:20:21.605Z,31.35
2023-04-29T09:22:53.674Z,30.96
2023-04-29T09:25:22.209Z,30.30
2023-04-29T09:27:50.239Z,31.07
2023-04-29T09:30:19.645Z,30.90
2023-04-29T09:33:06.984Z,31.07
2023-04-29T09:35:35.653Z,31.37
2023-04-29T09:38:13.382Z,31.05
2023-04-29T09:40:57.352Z,31.69
2023-04-29T09:43:27.416Z,31.78
2023-04-29T09:45:55.651Z,31.15
2023-04-29T09:48:23.745Z,30.92
2023-04-29T09:51:01.756Z,30.63
2023-04-29T09:53:31.265Z,30.93
2023-04-29T09:56:01.326Z,30.39
2023-04-29T09:58:42.129Z,31.05
2023-04-29T10:01:10.589Z,30.10
2023-04-29T10:03:38.947Z,30.62
2023-04-29T10:06:07.999Z,30.91
2023-04-29T10:08:36.196Z,30.70
2023-04-29T10:11:04.462Z,29.36
2023-04-29T10:13:32.744Z,30.22
2023-04-29T10:16:10.134Z,30.10
2023-04-29T10:18:38.500Z,30.02
2023-04-29T10:21:07.260Z,29.34
2023-04-29T10:23:36.610Z,28.97
2023-04-29T10:26:04.583Z,29.90
2023-04-29T10:28:32.995Z,30.24
2023-04-29T10:31:02.271Z,29.14
2023-04-29T10:33:31.588Z,29.55
2023-04-29T10:36:01.270Z,29.08
2023-04-29T10:38:35.466Z,28.72
2023-04-29T10:41:04.641Z,29.40
2023-04-29T10:43:32.656Z,29.64
2023-04-29T10:46:18.001Z,28.90
2023-04-29T10:49:08.548Z,28.82
2023-04-29T10:51:57.731Z,28.37
2023-04-29T10:54:26.252Z,28.32
2023-04-29T10:56:54.650Z,27.38
2023-04-29T10:59:28.612Z,27.88
2023-04-29T11:01:56.639Z,28.36
2023-04-29T11:04:24.677Z,27.98
2023-04-29T11:06:54.704Z,28.46
2023-04-29T11:09:30.338Z,27.24
2023-04-29T11:12:03.645Z,27.18
2023-04-29T11:14:49.445Z,26.85
2023-04-29T11:17:19.940Z,27.14
2023-04-29T11:19:50.352Z,26.41
2023-04-29T11:22:18.450Z,26.59
2023-04-29T11:24:57.530Z,26.86
2023-04-29T11:27:38.932Z,27.34
2023-04-29T11:30:07.868Z,27.68
2023-04-29T11:32:40.649Z,27.38
2023-04-29T11:35:10.341Z,27.26
2023-04-29T11:37:38.652Z,26.48
2023-04-29T11:40:07.283Z,26.60
2023-04-29T11:42:36.897Z,26.87
2023-04-29T11:45:05.521Z,26.96
2023-04-29T11:47:33.965Z,26.63
2023-04-29T11:50:08.914Z,26.60
2023-04-29T11:52:38.958Z,27.36
2023-04-29T11:55:09.246Z,27.34
2023-04-29T11:57:37.658Z,26.86
2023-04-29T12:00:07.389Z,26.66
2023-04-29T12:02:38.824Z,26.14
2023-04-29T12:05:08.714Z,26.36
2023-04-29T12:07:37.638Z,26.97
2023-04-29T12:10:12.390Z,27.04
2023-04-29T12:12:47.568Z,26.22
2023-04-29T12:15:15.573Z,26.59
2023-04-29T12:17:43.665Z,26.69
2023-04-29T12:20:12.416Z,26.12
2023-04-29T12:22:43.951Z,26.78
2023-04-29T12:25:12.496Z,26.97
2023-04-29T12:27:42.451Z,26.90
2023-04-29T12:30:11.504Z,26.65
2023-04-29T12:32:39.577Z,26.58
2023-04-29T12:35:16.560Z,26.32
2023-04-29T12:37:48.425Z,25.99
2023-04-29T12:40:16.948Z,26.41
2023-04-29T12:42:47.769Z,26.05
2023-04-29T12:45:32.835Z,25.73
2023-04-29T12:48:01.620Z,25.18
2023-04-29T12:50:37.926Z,25.93
2023-04-29T12:53:06.690Z,25.98
2023-04-29T12:55:37.994Z,26.25
2023-04-29T12:58:07.462Z,26.28
2023-04-29T13:00:37.628Z,26.47
2023-04-29T13:03:06.319Z,25.92
2023-04-29T13:05:34.698Z,24.53
2023-04-29T13:08:03.096Z,24.76
2023-04-29T13:10:31.163Z,24.21
2023-04-29T13:12:59.640Z,23.95
2023-04-29T13:15:27.859Z,23.64
2023-04-29T13:17:56.278Z,23.61
2023-04-29T13:20:24.386Z,23.66
2023-04-29T13:22:52.592Z,22.90
2023-04-29T13:25:20.534Z,23.02
2023-04-29T13:27:48.669Z,23.24
2023-04-29T13:30:16.677Z,23.13
2023-04-29T13:32:51.641Z,23.15
2023-04-29T13:35:23.450Z,23.05
2023-04-29T13:37:51.474Z,23.13
2023-04-29T13:40:21.165Z,24.34
2023-04-29T13:42:50.825Z,24.39
2023-04-29T13:45:29.083Z,24.02
2023-04-29T13:48:09.641Z,24.22
2023-04-29T13:53:50.055Z,25.16
2023-04-29T13:59:11.735Z,24.95
2023-04-29T14:03:58.999Z,25.87
2023-04-29T14:06:28.514Z,26.60
2023-04-29T14:08:56.720Z,26.39
2023-04-29T14:11:24.739Z,26.69
2023-04-29T14:13:52.659Z,26.06
2023-04-29T14:16:21.027Z,25.87
2023-04-29T14:18:49.094Z,26.09
2023-04-29T14:21:17.113Z,25.42
2023-04-29T14:23:45.140Z,24.49
2023-04-29T14:26:27.383Z,24.46
2023-04-29T14:29:00.034Z,25.11
2023-04-29T14:31:29.824Z,26.02
2023-04-29T14:33:58.284Z,25.49
2023-04-29T14:36:26.907Z,25.19
2023-04-29T14:38:54.928Z,25.93
2023-04-29T14:41:22.948Z,26.74
2023-04-29T14:43:50.969Z,26.78
2023-04-29T14:46:19.028Z,26.04
2023-04-29T14:48:47.101Z,25.81
2023-04-29T14:51:15.328Z,26.29
2023-04-29T14:53:43.393Z,26.39
2023-04-29T14:56:11.385Z,26.42
2023-04-29T14:58:39.488Z,25.73
2023-04-29T15:01:07.700Z,24.92
2023-04-29T15:03:43.547Z,25.20
2023-04-29T15:06:13.145Z,25.53
2023-04-29T15:08:41.605Z,26.24
2023-04-29T15:11:09.528Z,25.88
2023-04-29T15:13:37.832Z,25.89
2023-04-29T15:16:07.492Z,25.78
2023-04-29T15:18:35.587Z,25.41
2023-04-29T15:21:04.614Z,25.32
2023-04-29T15:23:33.239Z,25.63
2023-04-29T15:26:01.260Z,27.85
2023-04-29T15:28:29.281Z,30.24
2023-04-29T15:31:00.008Z,30.57
2023-04-29T15:33:28.013Z,30.53
2023-04-29T15:35:56.839Z,30.34
2023-04-29T15:38:24.856Z,30.42
2023-04-29T15:40:58.993Z,30.76
2023-04-29T15:43:30.129Z,31.32
2023-04-29T15:45:59.654Z,31.61
2023-04-29T15:48:27.778Z,31.32
2023-04-29T15:50:55.792Z,31.43
2023-04-29T15:53:23.831Z,31.82
2023-04-29T15:55:52.432Z,31.99
2023-04-29T15:58:20.351Z,32.44
2023-04-29T16:00:48.530Z,31.58
2023-04-29T16:03:16.784Z,31.02
2023-04-29T16:05:45.119Z,30.63
2023-04-29T16:08:13.167Z,30.67
2023-04-29T16:10:41.162Z,30.44
2023-04-29T16:13:09.379Z,30.39
2023-04-29T16:15:37.393Z,30.84
2023-04-29T16:18:05.808Z,31.18
2023-04-29T16:20:33.938Z,31.87
2023-04-29T16:23:01.954Z,32.44
2023-04-29T16:25:29.975Z,33.07
2023-04-29T16:27:58.000Z,33.33
2023-04-29T16:30:26.029Z,33.41
2023-04-29T16:32:54.882Z,34.05
2023-04-29T16:35:26.589Z,35.08
2023-04-29T16:37:55.698Z,35.71
2023-04-29T16:40:24.597Z,35.81
2023-04-29T16:42:53.609Z,36.83
2023-04-29T16:45:23.729Z,37.53
2023-04-29T16:47:52.843Z,38.57
2023-04-29T16:50:20.923Z,39.03
2023-04-29T16:52:48.933Z,39.15
2023-04-29T16:55:17.049Z,38.97
2023-04-29T16:57:45.070Z,39.15
2023-04-29T17:00:14.112Z,39.22
2023-04-29T17:02:43.210Z,39.15
2023-04-29T17:05:11.663Z,39.52
2023-04-29T17:07:39.857Z,39.63
2023-04-29T17:10:08.486Z,40.18
2023-04-29T17:12:36.703Z,40.66
2023-04-29T17:15:06.074Z,40.78
2023-04-29T17:17:35.219Z,41.15
2023-04-29T17:20:03.982Z,40.70
2023-04-29T17:22:33.389Z,41.07
2023-04-29T17:25:01.825Z,41.86
2023-04-29T17:27:30.029Z,41.93
2023-04-29T17:29:58.148Z,42.29
2023-04-29T17:32:29.673Z,43.37
2023-04-29T17:34:57.910Z,44.29
2023-04-29T17:37:26.022Z,45.37
2023-04-29T17:39:54.404Z,45.70
2023-04-29T17:42:22.761Z,45.92
2023-04-29T17:44:50.884Z,46.17
2023-04-29T17:47:19.495Z,46.85
2023-04-29T17:49:48.931Z,47.03
2023-04-29T17:52:21.098Z,47.78
2023-04-29T17:54:49.183Z,48.38
2023-04-29T17:57:17.209Z,51.53
2023-04-29T17:59:45.220Z,54.89
2023-04-29T18:02:13.147Z,56.88
2023-04-29T18:04:41.569Z,57.18
2023-04-29T18:07:09.592Z,58.02
2023-04-29T18:09:37.604Z,58.40
2023-04-29T18:12:05.926Z,59.13
2023-04-29T18:14:33.945Z,59.64
2023-04-29T18:17:02.075Z,60.69
2023-04-29T18:19:30.384Z,60.72
2023-04-29T18:21:59.414Z,61.06
2023-04-29T18:24:29.298Z,61.61
2023-04-29T18:26:57.764Z,61.08
2023-04-29T18:29:25.773Z,58.66
2023-04-29T18:31:55.056Z,58.70
2023-04-29T18:34:23.214Z,59.13
2023-04-29T18:36:51.537Z,60.48
2023-04-29T18:39:19.453Z,60.65
2023-04-29T18:41:47.379Z,60.40
2023-04-29T18:44:15.495Z,60.08
2023-04-29T18:46:43.743Z,60.42
2023-04-29T18:49:16.274Z,60.49
2023-04-29T18:51:46.660Z,60.58
2023-04-29T18:54:16.075Z,62.04
2023-04-29T18:56:47.950Z,61.28
2023-04-29T18:59:19.456Z,60.95
2023-04-29T19:01:48.190Z,60.53
2023-04-29T19:04:16.640Z,60.20
2023-04-29T19:06:45.072Z,59.98
2023-04-29T19:09:13.833Z,60.43
2023-04-29T19:11:41.986Z,60.96
2023-04-29T19:14:09.996Z,60.13
2023-04-29T19:16:38.045Z,60.47
2023-04-29T19:19:06.860Z,60.73
2023-04-29T19:21:34.952Z,60.51
2023-04-29T19:24:02.971Z,60.88
2023-04-29T19:26:33.008Z,61.72
2023-04-29T19:29:03.024Z,60.41
2023-04-29T19:31:31.241Z,61.65
2023-04-29T19:33:59.327Z,62.52
2023-04-29T19:36:27.290Z,61.66
2023-04-29T19:38:55.357Z,61.81
2023-04-29T19:41:23.429Z,62.29
2023-04-29T19:43:51.554Z,62.38
2023-04-29T19:46:19.583Z,62.22
2023-04-29T19:48:47.684Z,61.28
2023-04-29T19:51:16.310Z,62.27
2023-04-29T19:53:44.335Z,61.11
2023-04-29T19:56:12.357Z,61.14
2023-04-29T19:58:40.669Z,61.48
2023-04-29T20:01:08.630Z,61.20
2023-04-29T20:03:39.377Z,61.29
2023-04-29T20:06:07.881Z,61.32
2023-04-29T20:08:37.319Z,61.41
2023-04-29T20:11:05.584Z,61.27
2023-04-29T20:13:33.601Z,61.87
2023-04-29T20:16:01.669Z,61.82
2023-04-29T20:18:29.752Z,62.26
2023-04-29T20:20:57.764Z,62.56
2023-04-29T20:23:25.878Z,62.54
2023-04-29T20:25:53.900Z,62.40
2023-04-29T20:28:21.922Z,62.19
2023-04-29T20:30:49.842Z,62.41
2023-04-29T20:33:17.879Z,61.70
2023-04-29T20:35:45.975Z,62.25
2023-04-29T20:38:13.928Z,62.21
2023-04-29T20:40:42.319Z,62.53
2023-04-29T20:43:10.836Z,62.48
2023-04-29T20:45:39.079Z,62.29
2023-04-29T20:48:07.314Z,62.41
2023-04-29T20:50:35.798Z,61.97
2023-04-29T20:53:03.922Z,62.12
2023-04-29T20:55:31.941Z,62.22
2023-04-29T20:57:59.969Z,61.88
2023-04-29T21:00:27.982Z,62.22
2023-04-29T21:02:55.932Z,62.14
2023-04-29T21:05:24.021Z,61.99
2023-04-29T21:07:52.040Z,62.13
2023-04-29T21:10:21.066Z,62.46
2023-04-29T21:12:49.087Z,63.09
2023-04-29T21:15:17.609Z,62.90
2023-04-29T21:17:46.135Z,62.78
2023-04-29T21:20:14.150Z,62.72
2023-04-29T21:22:42.164Z,63.38
2023-04-29T21:25:10.200Z,63.90
2023-04-29T21:27:38.306Z,63.93
2023-04-29T21:30:06.825Z,64.07
2023-04-29T21:32:36.179Z,63.60
2023-04-29T21:35:04.666Z,63.48
2023-04-29T21:37:34.055Z,64.84
2023-04-29T21:40:04.460Z,64.15
2023-04-29T21:42:32.545Z,64.38
2023-04-29T21:45:01.165Z,65.14
2023-04-29T21:47:32.341Z,65.54
2023-04-29T21:50:00.935Z,64.48
2023-04-29T21:52:31.040Z,64.72
2023-04-29T21:54:59.066Z,64.29
2023-04-29T21:57:42.717Z,64.41
2023-04-29T22:00:28.797Z,64.63
2023-04-29T22:02:57.196Z,64.46
2023-04-29T22:05:25.458Z,64.04
2023-04-29T22:07:53.474Z,63.83
2023-04-29T22:10:21.493Z,63.16
2023-04-29T22:12:49.527Z,63.02
2023-04-29T22:15:28.112Z,62.36
2023-04-29T22:17:57.984Z,61.93
2023-04-29T22:20:26.021Z,61.72
2023-04-29T22:22:54.297Z,61.68
2023-04-29T22:25:22.558Z,61.46
2023-04-29T22:27:50.682Z,61.51
2023-04-29T22:30:19.836Z,61.27
2023-04-29T22:32:47.871Z,60.73
2023-04-29T22:35:16.343Z,61.37
2023-04-29T22:37:44.263Z,60.53
2023-04-29T22:40:13.116Z,60.26
2023-04-29T22:42:43.061Z,60.06
2023-04-29T22:45:12.481Z,60.05
2023-04-29T22:47:40.702Z,60.07
2023-04-29T22:50:10.246Z,59.95
2023-04-29T22:52:38.247Z,60.09
2023-04-29T22:55:07.222Z,60.01
2023-04-29T22:57:35.141Z,59.97
2023-04-29T23:00:03.760Z,60.01
2023-04-29T23:02:31.751Z,60.29
2023-04-29T23:04:59.835Z,60.27
2023-04-29T23:07:28.025Z,60.92
2023-04-29T23:09:56.226Z,60.20
2023-04-29T23:12:24.966Z,60.67
2023-04-29T23:14:52.984Z,60.67
2023-04-29T23:17:21.004Z,60.75
2023-04-29T23:19:49.028Z,60.63
2023-04-29T23:22:17.964Z,60.39
2023-04-29T23:24:45.992Z,60.56
2023-04-29T23:27:13.983Z,60.25
2023-04-29T23:29:42.041Z,60.40
2023-04-29T23:32:10.127Z,60.66
2023-04-29T23:34:38.192Z,60.64
2023-04-29T23:37:06.265Z,60.62
2023-04-29T23:39:34.384Z,60.57
2023-04-29T23:42:03.915Z,61.08
2023-04-29T23:44:31.833Z,61.03
2023-04-29T23:46:59.948Z,60.85
2023-04-29T23:49:28.767Z,60.76
2023-04-29T23:51:56.703Z,61.02
2023-04-29T23:54:24.710Z,61.26
2023-04-29T23:56:52.734Z,60.84
2023-04-29T23:59:20.751Z,61.18
